Aimwell, LA

1:22 AM CST on February 07, 2016 (GMT -0600)
[WERK]bereich | | Change Station
CLOSE
Current Station
Personal Weather Station
Location: Clarks, LA
Elevation: 161 ft
Nearby Weather Stations

Elev 161 ft 32.03 °N, 92.14 °W | Updated 9 seconds ago

Clear
Clear
30.6 °F
Feels Like 31 °F
N
0.0
Wind Variable Wind from NNE
Gusts 0.0 mph

Today
High -- | Low -- °F
--% Chance of Precip.
Yesterday
High -- | Low -- °F
Precip. -- in
Pressure 30.34 in
Visibility 10.0 miles
Clouds Clear
Windchill 31 °F
Dew Point 30 °F
Humidity 98%
Rainfall 0.00 in
Snow Depth Not available.
6:57 AM 5:47 PM
Waning Crescent, 2% visible
METAR KESF 070653Z AUTO 00000KT 10SM CLR 01/M02 A3034 RMK AO2 SLP273 T00111022
Pressure 30.34 in
Visibility 10.0 miles
Clouds Clear
Windchill 31 °F
Dew Point 30 °F
Humidity 98%
Rainfall 0.00 in
Snow Depth Not available.
6:57 AM 5:47 PM
Waning Crescent, 2% visible
METAR KESF 070653Z AUTO 00000KT 10SM CLR 01/M02 A3034 RMK AO2 SLP273 T00111022

10-Day Weather Forecast

Almanac

Astronomy

Feb. 07, 2016 Rise Set
Actual Time
Civil Twilight
Nautical Twilight
Astronomical Twilight
Moon
Length of Visible Light
Length of Day
Tomorrow will be .
, % of the Moon is Illuminated

Today's Extremes

State Highs State Lows

Community

WunderPhotos

Upload Photos

1,891,171 photos uploaded!

WunderBlog® & News

Nearby

Air Quality

  Air Quality AQ Index Pollutant
Not available.

Snow Depth

Station Depth Elevation

Earthquake Activity

City Distance Mag. Time & Date
Minimum magnitude displayed is 2.5.

Coastal Water Temperatures

Place Temperature

Stations

Nearby Weather Stations

Station Location Temp. Windchill Dew Point Humidity Wind Precip. Elev Updated Type
                   

Watches & Warnings

There are currently no watches in effect.